»·PEaware :: N8BM KSNA-KVCV

N8BM :: KSNA-KVCV

FLIGHT INFORMATION

Flight Status: Arrived
Operator: Privately registered:
United States
More flights under this callsign
Pilot: Brad M. (22842)
Aircraft: SOCATA TBM-900
(TBM9)
More flights by this aircraft type
Origin: KSNA John Wayne-Orange Co
United States
Destination: KVCV Socal Logistics
United States
More flights between these airports :: More routes between these airports
Route: +SLI V8 PDZ V442 APLES
File this flight plan on PilotEdge
Remarks:
Altitude:
(Current/Filed)
17,000ft
Speed:
(Current/Filed)
293kts
Departed: 15-Sep-19 04:55 PM
Arrived: 15-Sep-19 05:26 PM
Distance/Time
Traveled:
60nm/0:31
Distance/Time
To Go:
Arrived

Flight Plot

Page will automatically refresh every two minutes.


Map Options




Map Legend


Flown Route
Filed Route
Departure Airport
Arrival Airport
Navaid (VOR, NDB)
Fix

Horizontal Profiles

Position Reports

Time Latitude Longitude Heading Altitude Ground
Speed
15-Sep-19 16:28 33.671888 -117.867009 205 59ft 0kts
15-Sep-19 16:29 33.671888 -117.867009 205 59ft 0kts
15-Sep-19 16:30 33.671888 -117.867009 205 59ft 0kts
15-Sep-19 16:31 33.671888 -117.867009 205 59ft 0kts
15-Sep-19 16:32 33.671888 -117.867009 205 59ft 0kts
15-Sep-19 16:33 33.671888 -117.867009 205 59ft 0kts
15-Sep-19 16:34 33.671888 -117.867009 205 59ft 0kts
15-Sep-19 16:35 33.671888 -117.867009 205 59ft 0kts
15-Sep-19 16:36 33.671888 -117.867009 205 59ft 0kts
15-Sep-19 16:37 33.671888 -117.867009 205 59ft 0kts
15-Sep-19 16:38 33.671888 -117.867009 205 59ft 0kts
15-Sep-19 16:39 33.671888 -117.867009 205 59ft 0kts
15-Sep-19 16:40 33.671888 -117.867009 205 59ft 0kts
15-Sep-19 16:41 33.671888 -117.867009 205 59ft 0kts
15-Sep-19 16:42 33.671888 -117.867009 205 59ft 0kts
15-Sep-19 16:43 33.671888 -117.867009 205 59ft 0kts
15-Sep-19 16:44 33.671888 -117.867009 205 59ft 0kts
15-Sep-19 16:45 33.671888 -117.867009 205 59ft 0kts
15-Sep-19 16:46 33.671787 -117.867076 221 59ft 3kts
15-Sep-19 16:47 33.671869 -117.867381 299 59ft 0kts
15-Sep-19 16:48 33.671993 -117.867635 300 59ft 4kts
15-Sep-19 16:49 33.674290 -117.866935 28 59ft 7kts
15-Sep-19 16:50 33.676520 -117.865528 26 59ft 7kts
15-Sep-19 16:51 33.679270 -117.863810 27 59ft 9kts
15-Sep-19 16:52 33.679977 -117.863646 296 59ft 0kts
15-Sep-19 16:53 33.680670 -117.865662 211 59ft 10kts
15-Sep-19 16:54 33.653828 -117.876889 188 1492ft 132kts
15-Sep-19 16:55 33.609493 -117.886383 191 3030ft 180kts
15-Sep-19 16:56 33.558404 -117.891767 186 4622ft 195kts
15-Sep-19 16:57 33.500404 -117.897040 186 4992ft 209kts
15-Sep-19 16:58 33.443095 -117.899784 160 4979ft 214kts
15-Sep-19 16:59 33.456726 -117.848053 11 5441ft 226kts
15-Sep-19 17:00 33.517992 -117.829244 11 6234ft 228kts
15-Sep-19 17:01 33.580100 -117.810137 11 6934ft 231kts
15-Sep-19 17:02 33.643095 -117.790823 11 7608ft 233kts
15-Sep-19 17:03 33.706613 -117.771172 11 8302ft 236kts
15-Sep-19 17:04 33.770761 -117.751368 11 8828ft 236kts
15-Sep-19 17:05 33.834919 -117.731606 11 8839ft 236kts
15-Sep-19 17:06 33.880415 -117.683004 72 8830ft 240kts
15-Sep-19 17:07 33.899808 -117.605294 73 8843ft 240kts
15-Sep-19 17:08 33.922501 -117.529033 39 8916ft 244kts
15-Sep-19 17:09 33.982826 -117.491340 24 9003ft 245kts
15-Sep-19 17:10 34.044288 -117.454444 24 9003ft 247kts
15-Sep-19 17:11 34.105930 -117.417379 24 9013ft 247kts
15-Sep-19 17:12 34.166677 -117.380785 23 9297ft 241kts
15-Sep-19 17:13 34.226478 -117.344705 23 9384ft 244kts
15-Sep-19 17:14 34.287415 -117.307894 24 9505ft 243kts
15-Sep-19 17:15 34.345948 -117.272463 23 10383ft 232kts
15-Sep-19 17:16 34.404950 -117.236703 23 11059ft 244kts
15-Sep-19 17:17 34.468995 -117.197829 23 11058ft 265kts
15-Sep-19 17:18 34.536690 -117.162522 350 11027ft 261kts
15-Sep-19 17:19 34.563099 -117.225889 290 10295ft 213kts
15-Sep-19 17:20 34.616245 -117.252418 350 7792ft 206kts
15-Sep-19 17:21 34.655663 -117.284913 283 5653ft 136kts
15-Sep-19 17:22 34.640044 -117.319656 226 4035ft 108kts
15-Sep-19 17:23 34.620163 -117.343377 225 3429ft 89kts
15-Sep-19 17:24 34.603792 -117.362720 225 2968ft 81kts
15-Sep-19 17:25 34.594172 -117.372729 180 2859ft 16kts
15-Sep-19 17:26 34.591478 -117.374026 148 2865ft 15kts
15-Sep-19 17:27 34.590019 -117.372832 227 2868ft 0kts

Navigation Log

Ident Type
Flight plan parsing failed, navigation log unavailable